createdAt,value
2022-08-03T00:00:49.269Z,66.24
2022-08-03T00:01:49.277Z,66.24
2022-08-03T00:02:49.275Z,66.43
2022-08-03T00:03:49.244Z,66.63
2022-08-03T00:04:49.503Z,66.53
2022-08-03T00:06:04.206Z,66.53
2022-08-03T00:06:50.204Z,66.53
2022-08-03T00:07:49.476Z,66.53
2022-08-03T00:08:49.204Z,66.83
2022-08-03T00:09:49.193Z,66.93
2022-08-03T00:10:49.175Z,67.03
2022-08-03T00:11:49.155Z,67.23
2022-08-03T00:12:49.156Z,67.23
2022-08-03T00:13:49.155Z,67.33
2022-08-03T00:14:49.135Z,67.33
2022-08-03T00:15:49.126Z,67.36
2022-08-03T00:16:49.107Z,67.16
2022-08-03T00:17:52.351Z,67.07
2022-08-03T00:18:49.087Z,67.16
2022-08-03T00:19:49.084Z,66.96
2022-08-03T00:20:49.058Z,67.26
2022-08-03T00:21:49.042Z,67.57
2022-08-03T00:22:49.045Z,67.57
2022-08-03T00:23:51.355Z,67.57
2022-08-03T00:24:49.057Z,67.36
2022-08-03T00:25:49.020Z,67.36
2022-08-03T00:26:48.998Z,67.46
2022-08-03T00:27:48.980Z,67.57
2022-08-03T00:28:49.011Z,67.57
2022-08-03T00:29:59.375Z,67.76
2022-08-03T00:30:49.960Z,67.66
2022-08-03T00:31:51.494Z,67.76
2022-08-03T00:32:49.951Z,67.86
2022-08-03T00:33:59.101Z,67.86
2022-08-03T00:34:57.244Z,67.99
2022-08-03T00:35:50.941Z,67.90
2022-08-03T00:36:48.904Z,67.99
2022-08-03T00:37:48.900Z,67.99
2022-08-03T00:38:48.893Z,67.99
2022-08-03T00:39:48.872Z,67.99
2022-08-03T00:40:48.854Z,67.90
2022-08-03T00:41:48.856Z,67.99
2022-08-03T00:42:48.855Z,67.99
2022-08-03T00:43:48.812Z,67.99
2022-08-03T00:44:48.845Z,67.80
2022-08-03T00:45:48.806Z,67.90
2022-08-03T00:46:48.817Z,67.90
2022-08-03T00:47:48.774Z,67.80
2022-08-03T00:48:48.767Z,68.19
2022-08-03T00:49:48.756Z,68.40
2022-08-03T00:50:48.777Z,68.40
2022-08-03T00:51:48.758Z,68.29
2022-08-03T00:52:48.725Z,68.40
2022-08-03T00:53:48.711Z,68.40
2022-08-03T00:54:48.718Z,68.59
2022-08-03T00:55:48.688Z,68.59
2022-08-03T00:57:00.108Z,68.70
2022-08-03T00:57:49.678Z,68.79
2022-08-03T00:58:48.670Z,68.89
2022-08-03T00:59:48.644Z,69.20
2022-08-03T01:00:48.736Z,69.23
2022-08-03T01:01:48.746Z,69.32
2022-08-03T01:02:48.621Z,69.23
2022-08-03T01:03:48.601Z,69.32
2022-08-03T01:04:48.621Z,69.62
2022-08-03T01:05:48.612Z,69.53
2022-08-03T01:06:48.602Z,69.82
2022-08-03T01:07:48.561Z,70.03
2022-08-03T01:08:48.575Z,70.12
2022-08-03T01:09:48.553Z,70.32
2022-08-03T01:10:48.533Z,70.32
2022-08-03T01:12:00.767Z,70.42
2022-08-03T01:12:49.534Z,70.62
2022-08-03T01:14:01.290Z,70.53
2022-08-03T01:14:49.484Z,70.62
2022-08-03T01:15:48.498Z,71.12
2022-08-03T01:16:48.464Z,71.12
2022-08-03T01:17:48.444Z,71.03
2022-08-03T01:18:48.457Z,71.12
2022-08-03T01:19:48.453Z,71.26
2022-08-03T01:20:48.427Z,71.36
2022-08-03T01:21:48.676Z,71.56
2022-08-03T01:22:48.397Z,71.56
2022-08-03T01:23:48.394Z,71.86
2022-08-03T01:24:48.398Z,71.96
2022-08-03T01:25:48.368Z,72.16
2022-08-03T01:26:49.349Z,71.96
2022-08-03T01:27:48.328Z,71.86
2022-08-03T01:28:48.330Z,71.96
2022-08-03T01:29:48.320Z,72.36
2022-08-03T01:30:48.320Z,72.86
2022-08-03T01:32:58.490Z,73.16
2022-08-03T01:32:59.657Z,73.36
2022-08-03T01:33:49.272Z,73.25
2022-08-03T01:34:48.260Z,72.86
2022-08-03T01:35:48.249Z,73.36
2022-08-03T01:36:48.260Z,73.59
2022-08-03T01:37:48.240Z,73.59
2022-08-03T01:38:48.221Z,73.59
2022-08-03T01:39:48.201Z,73.69
2022-08-03T01:40:48.202Z,73.49
2022-08-03T01:41:48.189Z,73.49
2022-08-03T01:42:48.191Z,73.19
2022-08-03T01:43:55.147Z,72.89
2022-08-03T01:44:49.151Z,72.49
2022-08-03T01:45:48.140Z,72.29
2022-08-03T01:46:49.054Z,72.29
2022-08-03T01:47:48.136Z,72.39
2022-08-03T01:48:48.126Z,72.29
2022-08-03T01:49:48.178Z,72.13
2022-08-03T01:50:48.102Z,72.33
2022-08-03T01:51:57.907Z,72.92
2022-08-03T01:52:49.069Z,72.63
2022-08-03T01:53:48.066Z,73.22
2022-08-03T01:54:48.047Z,73.33
2022-08-03T01:55:48.037Z,73.22
2022-08-03T01:56:48.026Z,73.43
2022-08-03T01:58:06.087Z,73.72
2022-08-03T01:58:49.009Z,73.83
2022-08-03T01:59:47.999Z,73.83
2022-08-03T02:00:48.049Z,73.83
2022-08-03T02:02:15.494Z,73.72
2022-08-03T02:02:49.013Z,74.13
2022-08-03T02:04:00.253Z,74.22
2022-08-03T02:04:48.962Z,74.16
2022-08-03T02:05:47.927Z,74.26
2022-08-03T02:07:01.558Z,74.37
2022-08-03T02:07:48.902Z,74.37
2022-08-03T02:08:47.929Z,74.46
2022-08-03T02:09:47.887Z,74.46
2022-08-03T02:10:47.879Z,74.76
2022-08-03T02:11:47.871Z,74.76
2022-08-03T02:12:51.087Z,74.76
2022-08-03T02:13:47.841Z,74.76
2022-08-03T02:14:47.852Z,74.66
2022-08-03T02:15:47.823Z,74.76
2022-08-03T02:16:47.822Z,74.66
2022-08-03T02:17:47.793Z,74.87
2022-08-03T02:18:47.802Z,74.96
2022-08-03T02:19:47.782Z,75.06
2022-08-03T02:20:47.774Z,75.16
2022-08-03T02:21:57.291Z,75.16
2022-08-03T02:22:48.765Z,75.06
2022-08-03T02:23:47.744Z,75.16
2022-08-03T02:24:49.333Z,75.06
2022-08-03T02:25:47.714Z,75.30
2022-08-03T02:26:47.713Z,75.30
2022-08-03T02:27:47.695Z,75.40
2022-08-03T02:28:47.699Z,75.50
2022-08-03T02:29:47.676Z,75.50
2022-08-03T02:30:51.747Z,76.00
2022-08-03T02:31:48.665Z,75.70
2022-08-03T02:32:47.664Z,76.00
2022-08-03T02:33:47.638Z,76.10
2022-08-03T02:34:47.651Z,76.50
2022-08-03T02:35:47.616Z,76.50
2022-08-03T02:36:47.608Z,76.50
2022-08-03T02:37:49.755Z,76.70
2022-08-03T02:38:47.588Z,76.70
2022-08-03T02:39:47.568Z,76.70
2022-08-03T02:40:47.569Z,76.70
2022-08-03T02:41:47.558Z,76.80
2022-08-03T02:42:47.547Z,76.80
2022-08-03T02:44:06.473Z,76.80
2022-08-03T02:44:48.525Z,77.30
2022-08-03T02:45:47.539Z,77.00
2022-08-03T02:46:47.621Z,77.54
2022-08-03T02:47:53.504Z,77.74
2022-08-03T02:48:48.479Z,77.74
2022-08-03T02:49:50.405Z,77.54
2022-08-03T02:50:47.463Z,78.04
2022-08-03T02:51:47.464Z,77.94
2022-08-03T02:52:47.445Z,78.04
2022-08-03T02:53:47.456Z,78.24
2022-08-03T02:54:47.413Z,78.34
2022-08-03T02:55:47.418Z,78.44
2022-08-03T02:56:47.392Z,78.74
2022-08-03T02:57:47.391Z,78.84
2022-08-03T02:58:47.372Z,78.64
2022-08-03T02:59:47.374Z,78.94
2022-08-03T03:00:47.393Z,78.94
2022-08-03T03:01:47.346Z,78.94
2022-08-03T03:02:47.355Z,78.84
2022-08-03T03:03:47.336Z,78.64
2022-08-03T03:05:53.118Z,78.74
2022-08-03T03:05:55.449Z,78.74
2022-08-03T03:06:48.328Z,78.84
2022-08-03T03:07:49.799Z,79.04
2022-08-03T03:08:48.296Z,79.34
2022-08-03T03:09:47.267Z,79.54
2022-08-03T03:10:47.250Z,79.44
2022-08-03T03:11:47.245Z,79.34
2022-08-03T03:12:47.228Z,79.24
2022-08-03T03:13:47.228Z,79.34
2022-08-03T03:14:47.227Z,79.48
2022-08-03T03:15:47.198Z,79.64
2022-08-03T03:16:47.198Z,79.78
2022-08-03T03:17:47.178Z,79.68
2022-08-03T03:18:47.167Z,79.58
2022-08-03T03:19:47.159Z,79.88
2022-08-03T03:20:47.160Z,79.98
2022-08-03T03:21:47.157Z,79.78
2022-08-03T03:22:47.120Z,79.78
2022-08-03T03:23:47.133Z,79.98
2022-08-03T03:24:47.111Z,80.28
2022-08-03T03:25:47.091Z,80.08
2022-08-03T03:26:47.082Z,79.98
2022-08-03T03:27:49.402Z,79.88
2022-08-03T03:28:47.061Z,79.88
2022-08-03T03:29:47.082Z,79.98
2022-08-03T03:30:52.666Z,79.88
2022-08-03T03:31:48.032Z,79.88
2022-08-03T03:32:47.021Z,79.98
2022-08-03T03:33:47.013Z,80.08
2022-08-03T03:34:46.994Z,79.98
2022-08-03T03:35:46.994Z,80.08
2022-08-03T03:36:46.982Z,79.98
2022-08-03T03:37:46.971Z,79.98
2022-08-03T03:38:46.956Z,79.98
2022-08-03T03:39:46.959Z,80.08
2022-08-03T03:40:46.935Z,79.98
2022-08-03T03:41:46.943Z,80.18
2022-08-03T03:42:46.913Z,80.18
2022-08-03T03:43:46.906Z,80.08
2022-08-03T03:44:46.887Z,79.88
2022-08-03T03:45:46.888Z,80.18
2022-08-03T03:46:46.886Z,79.98
2022-08-03T03:47:46.865Z,80.28
2022-08-03T03:48:46.866Z,80.28
2022-08-03T03:49:46.844Z,80.28
2022-08-03T03:50:46.838Z,80.48
2022-08-03T03:51:46.817Z,80.58
2022-08-03T03:52:46.808Z,80.38
2022-08-03T03:53:46.821Z,80.38
2022-08-03T03:54:46.787Z,80.28
2022-08-03T03:56:02.423Z,80.28
2022-08-03T03:56:47.759Z,80.28
2022-08-03T03:57:46.791Z,80.28
2022-08-03T03:58:46.739Z,80.48
2022-08-03T03:59:46.738Z,80.48
2022-08-03T04:00:46.736Z,80.28
2022-08-03T04:01:46.710Z,80.38
2022-08-03T04:02:46.710Z,80.58
2022-08-03T04:03:46.690Z,80.68
2022-08-03T04:04:46.691Z,80.68
2022-08-03T04:05:46.671Z,80.72
2022-08-03T04:06:46.661Z,80.72
2022-08-03T04:07:46.671Z,80.82
2022-08-03T04:08:46.642Z,80.82
2022-08-03T04:09:46.642Z,80.92
2022-08-03T04:10:46.613Z,81.02
2022-08-03T04:11:46.604Z,81.02
2022-08-03T04:12:49.999Z,81.02
2022-08-03T04:13:46.603Z,81.02
2022-08-03T04:14:46.587Z,81.02
2022-08-03T04:15:46.564Z,81.02
2022-08-03T04:16:46.555Z,81.02
2022-08-03T04:17:46.545Z,81.02
2022-08-03T04:18:46.556Z,81.02
2022-08-03T04:19:46.528Z,81.12
2022-08-03T04:20:46.507Z,81.23
2022-08-03T04:21:46.506Z,81.32
2022-08-03T04:22:46.497Z,81.32
2022-08-03T04:23:46.487Z,81.32
2022-08-03T04:24:46.585Z,81.52
2022-08-03T04:25:46.468Z,81.62
2022-08-03T04:26:50.854Z,81.42
2022-08-03T04:28:28.370Z,81.52
2022-08-03T04:28:47.459Z,81.62
2022-08-03T04:29:48.541Z,81.62
2022-08-03T04:30:46.499Z,81.62
2022-08-03T04:31:46.422Z,81.62
2022-08-03T04:32:46.400Z,81.93
2022-08-03T04:33:46.379Z,81.73
2022-08-03T04:34:46.389Z,81.62
2022-08-03T04:35:59.727Z,81.62
2022-08-03T04:36:47.371Z,81.52
2022-08-03T04:37:46.350Z,81.73
2022-08-03T04:38:46.332Z,81.73
2022-08-03T04:39:46.493Z,81.73
2022-08-03T04:40:46.331Z,81.62
2022-08-03T04:42:06.732Z,81.62
2022-08-03T04:42:47.302Z,81.73
2022-08-03T04:43:47.303Z,81.52
2022-08-03T04:44:46.271Z,81.52
2022-08-03T04:45:46.263Z,81.52
2022-08-03T04:46:50.445Z,81.52
2022-08-03T04:47:47.390Z,81.52
2022-08-03T04:48:46.228Z,81.62
2022-08-03T04:49:46.212Z,81.82
2022-08-03T04:50:46.222Z,81.62
2022-08-03T04:51:46.193Z,81.52
2022-08-03T04:52:46.185Z,81.52
2022-08-03T04:53:46.276Z,81.52
2022-08-03T04:54:50.201Z,81.52
2022-08-03T04:55:46.153Z,81.42
2022-08-03T04:56:46.138Z,81.73
2022-08-03T04:57:46.125Z,81.73
2022-08-03T04:58:46.127Z,81.73
2022-08-03T04:59:46.106Z,81.73
2022-08-03T05:00:46.098Z,81.68
2022-08-03T05:01:46.157Z,81.59
2022-08-03T05:02:46.066Z,81.79
2022-08-03T05:03:46.067Z,81.79
2022-08-03T05:04:46.069Z,81.68
2022-08-03T05:05:50.062Z,81.79
2022-08-03T05:06:48.346Z,81.68
2022-08-03T05:07:47.018Z,81.68
2022-08-03T05:08:47.122Z,81.68
2022-08-03T05:09:52.355Z,81.59
2022-08-03T05:10:46.992Z,81.48
2022-08-03T05:11:45.992Z,81.38
2022-08-03T05:12:45.969Z,81.48
2022-08-03T05:13:45.950Z,81.59
2022-08-03T05:14:46.658Z,81.38
2022-08-03T05:15:45.953Z,81.38
2022-08-03T05:16:46.944Z,81.38
2022-08-03T05:17:45.914Z,81.18
2022-08-03T05:18:46.924Z,81.38
2022-08-03T05:19:45.892Z,81.29
2022-08-03T05:20:46.585Z,81.38
2022-08-03T05:21:52.536Z,81.29
2022-08-03T05:22:47.567Z,81.15
2022-08-03T05:23:45.865Z,80.85
2022-08-03T05:24:47.857Z,80.65
2022-08-03T05:25:49.723Z,80.54
2022-08-03T05:26:47.335Z,80.04
2022-08-03T05:27:45.831Z,79.94
2022-08-03T05:28:51.182Z,79.91
2022-08-03T05:29:46.805Z,79.71
2022-08-03T05:30:45.805Z,79.50
2022-08-03T05:31:45.797Z,79.50
2022-08-03T05:32:45.766Z,79.41
2022-08-03T05:33:45.846Z,79.41
2022-08-03T05:34:45.746Z,79.50
2022-08-03T05:35:57.286Z,79.50
2022-08-03T05:36:46.730Z,79.41
2022-08-03T05:37:54.752Z,79.27
2022-08-03T05:38:46.698Z,79.30
2022-08-03T05:39:45.703Z,79.36
2022-08-03T05:40:46.922Z,79.17
2022-08-03T05:41:46.669Z,79.17
2022-08-03T05:42:45.670Z,79.06
2022-08-03T05:43:45.691Z,79.06
2022-08-03T05:44:45.640Z,78.97
2022-08-03T05:45:45.640Z,78.86
2022-08-03T05:46:45.631Z,78.86
2022-08-03T05:47:45.614Z,78.77
2022-08-03T05:48:45.588Z,78.77
2022-08-03T05:49:45.591Z,78.67
2022-08-03T05:50:45.613Z,78.47
2022-08-03T05:51:45.582Z,78.36
2022-08-03T05:52:45.772Z,78.23
2022-08-03T05:53:45.553Z,78.13
2022-08-03T05:54:56.918Z,78.03
2022-08-03T05:55:46.534Z,77.93
2022-08-03T05:56:45.541Z,77.73
2022-08-03T05:57:45.522Z,77.83
2022-08-03T05:58:45.495Z,77.93
2022-08-03T05:59:53.934Z,77.83
2022-08-03T06:00:46.463Z,77.63
2022-08-03T06:01:45.650Z,77.83
2022-08-03T06:02:45.452Z,77.69
2022-08-03T06:03:45.436Z,77.59
2022-08-03T06:04:45.454Z,77.49
2022-08-03T06:05:54.972Z,77.49
2022-08-03T06:06:46.396Z,77.59
2022-08-03T06:07:45.409Z,77.59
2022-08-03T06:08:45.428Z,77.49
2022-08-03T06:10:33.871Z,77.49
2022-08-03T06:10:46.378Z,77.49
2022-08-03T06:11:45.358Z,77.29
2022-08-03T06:12:45.340Z,77.19
2022-08-03T06:13:45.339Z,77.19
2022-08-03T06:14:45.333Z,77.06
2022-08-03T06:15:45.310Z,76.86
2022-08-03T06:16:45.296Z,76.76
2022-08-03T06:17:45.321Z,76.65
2022-08-03T06:18:45.280Z,76.56
2022-08-03T06:19:45.280Z,76.45
2022-08-03T06:20:45.251Z,76.35
2022-08-03T06:21:45.272Z,76.15
2022-08-03T06:22:50.488Z,76.15
2022-08-03T06:23:55.102Z,76.12
2022-08-03T06:24:53.405Z,76.12
2022-08-03T06:25:46.201Z,75.92
2022-08-03T06:26:45.184Z,75.82
2022-08-03T06:27:45.192Z,75.62
2022-08-03T06:28:52.462Z,75.62
2022-08-03T06:29:46.181Z,75.52
2022-08-03T06:30:45.157Z,75.52
2022-08-03T06:31:45.152Z,75.42
2022-08-03T06:32:52.195Z,75.38
2022-08-03T06:33:48.326Z,75.28
2022-08-03T06:34:46.086Z,75.38
2022-08-03T06:35:45.278Z,75.38
2022-08-03T06:36:45.096Z,75.18
2022-08-03T06:37:45.075Z,75.09
2022-08-03T06:38:45.077Z,74.88
2022-08-03T06:39:45.067Z,74.68
2022-08-03T06:40:45.027Z,74.38
2022-08-03T06:41:45.118Z,74.35
2022-08-03T06:42:45.028Z,74.15
2022-08-03T06:44:03.553Z,74.25
2022-08-03T06:44:46.000Z,74.25
2022-08-03T06:45:45.970Z,74.15
2022-08-03T06:46:44.999Z,73.95
2022-08-03T06:47:45.973Z,73.75
2022-08-03T06:48:44.961Z,73.75
2022-08-03T06:50:12.755Z,73.65
2022-08-03T06:50:45.950Z,73.42
2022-08-03T06:52:03.404Z,73.32
2022-08-03T06:52:45.929Z,73.72
2022-08-03T06:53:45.611Z,73.42
2022-08-03T06:54:44.922Z,73.32
2022-08-03T06:55:45.172Z,73.32
2022-08-03T06:56:44.865Z,73.42
2022-08-03T06:57:45.900Z,73.42
2022-08-03T06:58:44.852Z,73.32
2022-08-03T07:00:06.177Z,73.32
2022-08-03T07:00:45.861Z,73.32
2022-08-03T07:01:45.448Z,73.32
2022-08-03T07:02:44.905Z,73.18
2022-08-03T07:03:47.605Z,73.28
2022-08-03T07:04:45.798Z,73.18
2022-08-03T07:05:45.066Z,73.18
2022-08-03T07:06:44.758Z,73.08
2022-08-03T07:07:45.456Z,72.88
2022-08-03T07:08:44.757Z,73.08
2022-08-03T07:09:56.989Z,72.78
2022-08-03T07:10:45.718Z,72.55
2022-08-03T07:11:45.444Z,72.45
2022-08-03T07:12:55.855Z,72.55
2022-08-03T07:13:46.424Z,72.55
2022-08-03T07:14:44.669Z,72.45
2022-08-03T07:15:55.843Z,72.55
2022-08-03T07:16:45.660Z,72.55
2022-08-03T07:17:44.670Z,72.55
2022-08-03T07:18:44.670Z,72.55
2022-08-03T07:19:44.625Z,72.15
2022-08-03T07:20:44.603Z,72.25
2022-08-03T07:21:44.610Z,71.81
2022-08-03T07:22:44.609Z,71.72
2022-08-03T07:23:44.584Z,71.32
2022-08-03T07:24:44.582Z,71.28
2022-08-03T07:25:44.582Z,70.79
2022-08-03T07:26:44.592Z,70.68
2022-08-03T07:27:46.845Z,70.68
2022-08-03T07:28:45.557Z,70.59
2022-08-03T07:29:44.502Z,70.45
2022-08-03T07:30:44.506Z,70.06
2022-08-03T07:31:44.514Z,69.66
2022-08-03T07:32:50.411Z,69.76
2022-08-03T07:33:45.508Z,69.76
2022-08-03T07:34:44.544Z,69.56
2022-08-03T07:35:44.457Z,69.66
2022-08-03T07:36:44.435Z,69.46
2022-08-03T07:37:54.599Z,69.36
2022-08-03T07:38:45.424Z,69.13
2022-08-03T07:39:44.415Z,69.03
2022-08-03T07:40:46.296Z,68.63
2022-08-03T07:41:44.384Z,68.93
2022-08-03T07:42:44.454Z,68.83
2022-08-03T07:43:44.386Z,68.73
2022-08-03T07:44:44.379Z,68.43
2022-08-03T07:45:44.519Z,68.33
2022-08-03T07:46:44.361Z,68.40
2022-08-03T07:47:44.342Z,68.50
2022-08-03T07:48:45.408Z,68.20
2022-08-03T07:49:57.929Z,67.90
2022-08-03T07:50:44.311Z,67.70
2022-08-03T07:51:44.279Z,68.00
2022-08-03T07:52:44.318Z,67.37
2022-08-03T07:53:47.412Z,67.57
2022-08-03T07:54:44.253Z,67.37
2022-08-03T07:55:44.240Z,66.97
2022-08-03T07:56:44.233Z,67.18
2022-08-03T07:57:44.251Z,66.97
2022-08-03T07:58:44.221Z,66.78
2022-08-03T07:59:57.248Z,66.85
2022-08-03T08:00:45.202Z,66.44
2022-08-03T08:01:44.251Z,66.05
2022-08-03T08:02:45.732Z,66.25
2022-08-03T08:03:52.887Z,66.15
2022-08-03T08:04:45.854Z,66.25
2022-08-03T08:05:44.213Z,65.95
2022-08-03T08:06:45.174Z,66.02
2022-08-03T08:07:44.173Z,65.92
2022-08-03T08:08:45.795Z,65.62
2022-08-03T08:09:44.104Z,65.52
2022-08-03T08:10:57.995Z,65.09
2022-08-03T08:11:45.085Z,64.89
2022-08-03T08:12:44.395Z,65.09
2022-08-03T08:13:44.066Z,64.79
2022-08-03T08:14:45.298Z,63.80
2022-08-03T08:15:44.054Z,64.00
2022-08-03T08:16:44.726Z,63.90
2022-08-03T08:17:44.037Z,64.07
2022-08-03T08:18:44.037Z,63.97
2022-08-03T08:19:51.470Z,63.48
2022-08-03T08:20:45.058Z,62.88
2022-08-03T08:21:53.214Z,63.57
2022-08-03T08:22:44.963Z,62.48
2022-08-03T08:23:49.474Z,62.08
2022-08-03T08:24:44.928Z,61.10
2022-08-03T08:25:43.941Z,61.16
2022-08-03T08:26:44.937Z,60.86
2022-08-03T08:28:30.666Z,61.76
2022-08-03T08:28:44.891Z,61.56
2022-08-03T08:29:47.567Z,60.57
2022-08-03T08:30:44.872Z,59.88
2022-08-03T08:31:43.906Z,59.97
2022-08-03T08:32:43.852Z,59.25
2022-08-03T08:34:44.864Z,61.23
2022-08-03T08:35:43.813Z,60.81
2022-08-03T08:36:43.832Z,60.21
2022-08-03T08:37:43.790Z,59.32
2022-08-03T08:38:44.858Z,60.11
2022-08-03T08:39:43.789Z,59.72
2022-08-03T08:40:43.875Z,60.11
2022-08-03T08:41:46.145Z,59.62
2022-08-03T08:42:57.603Z,58.90
2022-08-03T08:43:44.743Z,58.40
2022-08-03T08:44:43.756Z,59.09
2022-08-03T08:45:43.725Z,58.01
2022-08-03T08:46:43.823Z,56.72
2022-08-03T08:47:51.807Z,57.02
2022-08-03T08:48:44.679Z,56.62
2022-08-03T08:49:58.204Z,58.30
2022-08-03T08:50:44.657Z,57.90
2022-08-03T08:51:59.232Z,58.60
2022-08-03T08:52:44.669Z,58.01
2022-08-03T08:53:43.642Z,58.50
2022-08-03T08:54:43.617Z,58.50
2022-08-03T08:55:58.288Z,57.81
2022-08-03T08:56:44.618Z,58.30
2022-08-03T08:57:43.706Z,56.99
2022-08-03T08:58:43.580Z,56.99
2022-08-03T08:59:48.424Z,56.59
2022-08-03T09:00:44.635Z,56.00
2022-08-03T09:01:43.544Z,56.00
2022-08-03T09:02:43.591Z,55.41
2022-08-03T09:03:43.523Z,54.71
2022-08-03T09:04:43.530Z,55.21
2022-08-03T09:05:55.763Z,55.90
2022-08-03T09:06:58.682Z,57.68
2022-08-03T09:07:44.551Z,55.90
2022-08-03T09:08:43.476Z,57.78
2022-08-03T09:10:07.539Z,56.79
2022-08-03T09:10:44.463Z,56.59
2022-08-03T09:11:51.732Z,55.47
2022-08-03T09:12:44.446Z,53.99
2022-08-03T09:13:43.422Z,54.49
2022-08-03T09:15:00.818Z,53.89
2022-08-03T09:16:00.900Z,54.17
2022-08-03T09:16:44.386Z,53.18
2022-08-03T09:17:48.959Z,54.17
2022-08-03T09:18:44.537Z,54.86
2022-08-03T09:20:03.547Z,54.83
2022-08-03T09:20:44.438Z,54.44
2022-08-03T09:21:44.377Z,53.35
2022-08-03T09:22:43.405Z,52.86
2022-08-03T09:23:51.381Z,53.15
2022-08-03T09:24:44.308Z,52.26
2022-08-03T09:25:44.349Z,53.75
2022-08-03T09:26:43.363Z,53.55
2022-08-03T09:27:44.081Z,53.25
2022-08-03T09:28:59.388Z,53.52
2022-08-03T09:29:45.155Z,52.93
2022-08-03T09:30:43.270Z,51.45
2022-08-03T09:31:44.374Z,51.64
2022-08-03T09:32:43.264Z,52.11
2022-08-03T09:33:43.312Z,53.50
2022-08-03T09:34:43.193Z,53.79
2022-08-03T09:35:58.820Z,49.55
2022-08-03T09:36:44.194Z,49.65
2022-08-03T09:38:11.797Z,49.52
2022-08-03T09:38:44.163Z,49.52
2022-08-03T09:39:44.193Z,49.22
2022-08-03T09:40:43.194Z,49.43
2022-08-03T09:41:43.264Z,50.02
2022-08-03T09:42:43.105Z,48.24
2022-08-03T09:43:43.113Z,48.44
2022-08-03T09:44:43.085Z,49.10
2022-08-03T09:45:43.316Z,47.53
2022-08-03T09:46:43.085Z,47.63
2022-08-03T09:47:44.687Z,48.00
2022-08-03T09:48:43.055Z,47.80
2022-08-03T09:49:43.075Z,48.79
2022-08-03T09:50:43.048Z,50.24
2022-08-03T09:52:31.606Z,50.14
2022-08-03T09:52:49.845Z,48.86
2022-08-03T09:53:56.994Z,48.86
2022-08-03T09:54:43.986Z,48.76
2022-08-03T09:56:35.216Z,49.26
2022-08-03T09:56:44.011Z,48.47
2022-08-03T09:57:42.951Z,48.96
2022-08-03T09:58:42.968Z,48.76
2022-08-03T09:59:42.921Z,48.27
2022-08-03T10:00:43.009Z,48.17
2022-08-03T10:01:43.034Z,48.17
2022-08-03T10:02:42.927Z,49.55
2022-08-03T10:04:03.123Z,49.35
2022-08-03T10:04:43.939Z,47.97
2022-08-03T10:05:42.953Z,47.97
2022-08-03T10:06:42.883Z,49.95
2022-08-03T10:07:45.885Z,50.31
2022-08-03T10:08:42.867Z,48.94
2022-08-03T10:09:42.814Z,48.83
2022-08-03T10:10:42.836Z,48.35
2022-08-03T10:11:42.795Z,47.85
2022-08-03T10:12:42.816Z,46.97
2022-08-03T10:13:42.775Z,46.77
2022-08-03T10:14:42.790Z,46.47
2022-08-03T10:16:22.183Z,46.37
2022-08-03T10:16:43.768Z,46.77
2022-08-03T10:17:42.797Z,47.75
2022-08-03T10:18:42.754Z,46.87
2022-08-03T10:19:42.719Z,47.75
2022-08-03T10:20:42.788Z,46.75
2022-08-03T10:21:42.749Z,46.45
2022-08-03T10:22:42.689Z,46.35
2022-08-03T10:23:42.693Z,46.25
2022-08-03T10:24:42.671Z,46.06
2022-08-03T10:25:42.680Z,44.46
2022-08-03T10:26:49.886Z,44.36
2022-08-03T10:27:43.661Z,44.95
2022-08-03T10:28:45.326Z,45.35
2022-08-03T10:29:42.660Z,44.95
2022-08-03T10:30:42.644Z,44.95
2022-08-03T10:31:57.248Z,44.85
2022-08-03T10:32:43.605Z,44.76
2022-08-03T10:33:49.502Z,44.73
2022-08-03T10:34:45.633Z,46.50
2022-08-03T10:35:42.553Z,43.85
2022-08-03T10:36:43.256Z,43.65
2022-08-03T10:37:56.485Z,44.64
2022-08-03T10:38:45.093Z,44.44
2022-08-03T10:39:42.543Z,44.22
2022-08-03T10:40:49.273Z,44.42
2022-08-03T10:41:43.493Z,45.99
2022-08-03T10:42:43.197Z,45.89
2022-08-03T10:43:42.550Z,44.81
2022-08-03T10:44:43.175Z,44.71
2022-08-03T10:45:42.453Z,44.79
2022-08-03T10:46:44.911Z,44.59
2022-08-03T10:47:42.484Z,44.10
2022-08-03T10:48:42.425Z,43.90
2022-08-03T10:49:42.450Z,45.77
2022-08-03T10:50:42.398Z,45.87
2022-08-03T10:51:42.387Z,46.56
2022-08-03T10:52:44.360Z,45.48
2022-08-03T10:53:46.225Z,45.57
2022-08-03T10:54:43.462Z,45.28
2022-08-03T10:55:42.349Z,45.09
2022-08-03T10:56:49.915Z,44.30
2022-08-03T10:57:43.332Z,44.30
2022-08-03T10:58:57.047Z,43.71
2022-08-03T10:59:43.311Z,44.01
2022-08-03T11:00:42.355Z,44.20
2022-08-03T11:01:58.306Z,44.98
2022-08-03T11:02:43.271Z,44.27
2022-08-03T11:03:42.262Z,43.79
2022-08-03T11:04:42.272Z,44.18
2022-08-03T11:05:42.280Z,44.27
2022-08-03T11:06:42.263Z,44.08
2022-08-03T11:07:42.265Z,45.24
2022-08-03T11:08:42.275Z,45.14
2022-08-03T11:09:42.195Z,45.24
2022-08-03T11:10:42.239Z,44.84
2022-08-03T11:11:42.425Z,44.84
2022-08-03T11:12:42.173Z,44.74
2022-08-03T11:13:42.896Z,44.35
2022-08-03T11:14:42.223Z,44.26
2022-08-03T11:15:42.145Z,43.27
2022-08-03T11:16:42.167Z,44.23
2022-08-03T11:17:46.746Z,44.62
2022-08-03T11:18:43.178Z,44.62
2022-08-03T11:19:56.958Z,44.82
2022-08-03T11:20:43.117Z,44.62
2022-08-03T11:21:42.180Z,44.62
2022-08-03T11:22:42.101Z,44.62
2022-08-03T11:24:03.966Z,44.43
2022-08-03T11:24:43.040Z,44.13
2022-08-03T11:25:54.547Z,44.21
2022-08-03T11:26:43.027Z,44.21
2022-08-03T11:27:42.010Z,44.70
2022-08-03T11:28:42.070Z,44.41
2022-08-03T11:29:42.043Z,43.35
2022-08-03T11:30:41.992Z,44.23
2022-08-03T11:31:50.646Z,43.82
2022-08-03T11:32:46.623Z,42.57
2022-08-03T11:33:42.945Z,42.55
2022-08-03T11:34:41.930Z,42.74
2022-08-03T11:35:41.955Z,43.13
2022-08-03T11:36:41.946Z,43.33
2022-08-03T11:37:41.939Z,42.33
2022-08-03T11:38:42.914Z,43.41
2022-08-03T11:39:41.905Z,42.13
2022-08-03T11:40:41.896Z,42.70
2022-08-03T11:41:43.287Z,42.90
2022-08-03T11:42:41.849Z,42.50
2022-08-03T11:43:41.868Z,43.29
2022-08-03T11:44:41.836Z,42.80
2022-08-03T11:45:42.841Z,42.78
2022-08-03T11:46:41.830Z,42.80
2022-08-03T11:47:50.854Z,42.58
2022-08-03T11:48:42.830Z,42.48
2022-08-03T11:49:42.815Z,42.29
2022-08-03T11:50:41.843Z,42.38
2022-08-03T11:51:41.951Z,42.97
2022-08-03T11:52:41.803Z,41.70
2022-08-03T11:53:42.891Z,41.99
2022-08-03T11:54:41.769Z,42.38
2022-08-03T11:55:43.397Z,42.09
2022-08-03T11:56:41.723Z,41.99
2022-08-03T11:58:58.162Z,42.09
2022-08-03T11:59:19.291Z,42.19
2022-08-03T11:59:42.745Z,41.70
2022-08-03T12:00:41.736Z,41.09
2022-08-03T12:01:42.364Z,41.39
2022-08-03T12:02:41.867Z,41.29
2022-08-03T12:03:41.758Z,40.70
2022-08-03T12:04:41.626Z,39.80
2022-08-03T12:05:41.625Z,41.27
2022-08-03T12:06:47.050Z,40.78
2022-08-03T12:08:03.906Z,39.88
2022-08-03T12:08:42.630Z,40.27
2022-08-03T12:09:41.587Z,39.78
2022-08-03T12:10:41.568Z,40.45
2022-08-03T12:11:50.976Z,40.45
2022-08-03T12:12:46.435Z,39.84
2022-08-03T12:14:44.307Z,40.04
2022-08-03T12:14:48.601Z,40.14
2022-08-03T12:15:42.535Z,39.45
2022-08-03T12:16:41.507Z,40.43
2022-08-03T12:17:41.525Z,39.94
2022-08-03T12:18:41.483Z,39.45
2022-08-03T12:19:41.481Z,39.53
2022-08-03T12:20:41.540Z,39.22
2022-08-03T12:21:41.634Z,39.41
2022-08-03T12:22:42.576Z,38.53
2022-08-03T12:23:41.444Z,37.93
2022-08-03T12:24:41.478Z,37.81
2022-08-03T12:25:41.414Z,38.20
2022-08-03T12:26:41.405Z,38.18
2022-08-03T12:27:41.404Z,38.07
2022-08-03T12:28:44.981Z,36.98
2022-08-03T12:29:42.377Z,37.54
2022-08-03T12:30:42.357Z,36.36
2022-08-03T12:31:41.368Z,36.05
2022-08-03T12:32:41.346Z,36.11
2022-08-03T12:33:41.341Z,34.61
2022-08-03T12:34:45.347Z,34.17
2022-08-03T12:35:42.320Z,33.34
2022-08-03T12:36:42.310Z,31.35
2022-08-03T12:37:41.340Z,31.00
2022-08-03T12:38:41.301Z,30.07
2022-08-03T12:40:01.699Z,28.48
2022-08-03T12:40:42.273Z,27.56
2022-08-03T12:41:41.281Z,26.26
2022-08-03T12:42:41.322Z,25.74
2022-08-03T12:43:41.243Z,25.04
2022-08-03T12:44:41.263Z,24.34
2022-08-03T12:45:41.214Z,24.02
2022-08-03T12:46:47.098Z,24.08
2022-08-03T12:47:42.321Z,23.30
2022-08-03T12:48:41.204Z,22.52
2022-08-03T12:49:41.311Z,21.94
2022-08-03T12:50:41.175Z,22.20
2022-08-03T12:51:41.226Z,21.42
2022-08-03T12:52:41.166Z,20.92
2022-08-03T12:53:41.157Z,20.53